sensor_id;sensor_type;location;lat;lon;timestamp;temperature;humidity
13336;DHT22;6737;51.480;11.962;2023-09-07T00:00:14;18.20;99.90
13336;DHT22;6737;51.480;11.962;2023-09-07T00:02:40;18.10;99.90
13336;DHT22;6737;51.480;11.962;2023-09-07T00:05:06;18.00;99.90
13336;DHT22;6737;51.480;11.962;2023-09-07T00:07:33;18.00;99.90
13336;DHT22;6737;51.480;11.962;2023-09-07T00:09:59;17.90;99.90
13336;DHT22;6737;51.480;11.962;2023-09-07T00:12:26;17.80;99.90
13336;DHT22;6737;51.480;11.962;2023-09-07T00:14:55;17.70;99.90
13336;DHT22;6737;51.480;11.962;2023-09-07T00:17:21;17.60;99.90
13336;DHT22;6737;51.480;11.962;2023-09-07T00:19:47;17.50;99.90
13336;DHT22;6737;51.480;11.962;2023-09-07T00:22:17;17.30;99.90
13336;DHT22;6737;51.480;11.962;2023-09-07T00:24:44;17.20;99.90
13336;DHT22;6737;51.480;11.962;2023-09-07T00:27:10;17.20;99.90
13336;DHT22;6737;51.480;11.962;2023-09-07T00:29:38;17.00;99.90
13336;DHT22;6737;51.480;11.962;2023-09-07T00:32:04;17.00;99.90
13336;DHT22;6737;51.480;11.962;2023-09-07T00:34:30;17.00;99.90
13336;DHT22;6737;51.480;11.962;2023-09-07T00:36:57;16.90;99.90
13336;DHT22;6737;51.480;11.962;2023-09-07T00:39:23;16.90;99.90
13336;DHT22;6737;51.480;11.962;2023-09-07T00:41:49;16.90;99.90
13336;DHT22;6737;51.480;11.962;2023-09-07T00:44:14;16.90;99.90
13336;DHT22;6737;51.480;11.962;2023-09-07T00:46:40;16.90;99.90
13336;DHT22;6737;51.480;11.962;2023-09-07T00:49:06;16.90;99.90
13336;DHT22;6737;51.480;11.962;2023-09-07T00:51:32;17.00;99.90
13336;DHT22;6737;51.480;11.962;2023-09-07T00:53:59;16.90;99.90
13336;DHT22;6737;51.480;11.962;2023-09-07T00:56:28;16.90;99.90
13336;DHT22;6737;51.480;11.962;2023-09-07T00:58:54;16.90;99.90
13336;DHT22;6737;51.480;11.962;2023-09-07T01:01:23;16.80;99.90
13336;DHT22;6737;51.480;11.962;2023-09-07T01:03:50;16.70;99.90
13336;DHT22;6737;51.480;11.962;2023-09-07T01:06:22;16.70;99.90
13336;DHT22;6737;51.480;11.962;2023-09-07T01:08:55;16.70;99.90
13336;DHT22;6737;51.480;11.962;2023-09-07T01:11:24;16.50;99.90
13336;DHT22;6737;51.480;11.962;2023-09-07T01:13:50;16.50;99.90
13336;DHT22;6737;51.480;11.962;2023-09-07T01:16:21;16.50;99.90
13336;DHT22;6737;51.480;11.962;2023-09-07T01:18:49;16.50;99.90
13336;DHT22;6737;51.480;11.962;2023-09-07T01:21:16;16.40;99.90
13336;DHT22;6737;51.480;11.962;2023-09-07T01:23:44;16.40;99.90
13336;DHT22;6737;51.480;11.962;2023-09-07T01:26:12;16.40;99.90
13336;DHT22;6737;51.480;11.962;2023-09-07T01:28:38;16.30;99.90
13336;DHT22;6737;51.480;11.962;2023-09-07T01:31:04;16.20;99.90
13336;DHT22;6737;51.480;11.962;2023-09-07T01:33:31;16.10;99.90
13336;DHT22;6737;51.480;11.962;2023-09-07T01:35:57;16.20;99.90
13336;DHT22;6737;51.480;11.962;2023-09-07T01:38:23;16.10;99.90
13336;DHT22;6737;51.480;11.962;2023-09-07T01:40:48;16.10;99.90
13336;DHT22;6737;51.480;11.962;2023-09-07T01:43:14;16.10;99.90
13336;DHT22;6737;51.480;11.962;2023-09-07T01:45:40;16.10;99.90
13336;DHT22;6737;51.480;11.962;2023-09-07T01:48:10;16.10;99.90
13336;DHT22;6737;51.480;11.962;2023-09-07T01:50:36;16.10;99.90
13336;DHT22;6737;51.480;11.962;2023-09-07T01:53:02;16.20;99.90
13336;DHT22;6737;51.480;11.962;2023-09-07T01:55:34;16.20;99.90
13336;DHT22;6737;51.480;11.962;2023-09-07T01:58:00;16.20;99.90
13336;DHT22;6737;51.480;11.962;2023-09-07T02:00:25;16.10;99.90
13336;DHT22;6737;51.480;11.962;2023-09-07T02:02:51;16.10;99.90
13336;DHT22;6737;51.480;11.962;2023-09-07T02:05:17;16.10;99.90
13336;DHT22;6737;51.480;11.962;2023-09-07T02:07:43;15.90;99.90
13336;DHT22;6737;51.480;11.962;2023-09-07T02:10:09;15.80;99.90
13336;DHT22;6737;51.480;11.962;2023-09-07T02:12:36;15.80;99.90
13336;DHT22;6737;51.480;11.962;2023-09-07T02:15:03;15.80;99.90
13336;DHT22;6737;51.480;11.962;2023-09-07T02:17:30;15.80;99.90
13336;DHT22;6737;51.480;11.962;2023-09-07T02:19:56;15.80;99.90
13336;DHT22;6737;51.480;11.962;2023-09-07T02:22:21;15.80;99.90
13336;DHT22;6737;51.480;11.962;2023-09-07T02:24:47;15.70;99.90
13336;DHT22;6737;51.480;11.962;2023-09-07T02:27:13;15.60;99.90
13336;DHT22;6737;51.480;11.962;2023-09-07T02:29:39;15.60;99.90
13336;DHT22;6737;51.480;11.962;2023-09-07T02:32:05;15.60;99.90
13336;DHT22;6737;51.480;11.962;2023-09-07T02:34:31;15.60;99.90
13336;DHT22;6737;51.480;11.962;2023-09-07T02:36:57;15.60;99.90
13336;DHT22;6737;51.480;11.962;2023-09-07T02:39:23;15.60;99.90
13336;DHT22;6737;51.480;11.962;2023-09-07T02:41:52;15.40;99.90
13336;DHT22;6737;51.480;11.962;2023-09-07T02:44:18;15.40;99.90
13336;DHT22;6737;51.480;11.962;2023-09-07T02:46:44;15.40;99.90
13336;DHT22;6737;51.480;11.962;2023-09-07T02:49:09;15.50;99.90
13336;DHT22;6737;51.480;11.962;2023-09-07T02:51:35;15.40;99.90
13336;DHT22;6737;51.480;11.962;2023-09-07T02:54:02;15.30;99.90
13336;DHT22;6737;51.480;11.962;2023-09-07T02:56:29;15.20;99.90
13336;DHT22;6737;51.480;11.962;2023-09-07T02:58:55;15.20;99.90
13336;DHT22;6737;51.480;11.962;2023-09-07T03:01:21;15.20;99.90
13336;DHT22;6737;51.480;11.962;2023-09-07T03:03:47;15.20;99.90
13336;DHT22;6737;51.480;11.962;2023-09-07T03:06:15;15.30;99.90
13336;DHT22;6737;51.480;11.962;2023-09-07T03:08:45;15.40;99.90
13336;DHT22;6737;51.480;11.962;2023-09-07T03:11:11;15.50;99.90
13336;DHT22;6737;51.480;11.962;2023-09-07T03:13:38;15.50;99.90
13336;DHT22;6737;51.480;11.962;2023-09-07T03:16:04;15.60;99.90
13336;DHT22;6737;51.480;11.962;2023-09-07T03:18:30;15.60;99.90
13336;DHT22;6737;51.480;11.962;2023-09-07T03:21:00;15.60;99.90
13336;DHT22;6737;51.480;11.962;2023-09-07T03:23:30;15.60;99.90
13336;DHT22;6737;51.480;11.962;2023-09-07T03:25:57;15.70;99.90
13336;DHT22;6737;51.480;11.962;2023-09-07T03:28:23;15.70;99.90
13336;DHT22;6737;51.480;11.962;2023-09-07T03:30:51;15.70;99.90
13336;DHT22;6737;51.480;11.962;2023-09-07T03:33:17;15.70;99.90
13336;DHT22;6737;51.480;11.962;2023-09-07T03:35:43;15.70;99.90
13336;DHT22;6737;51.480;11.962;2023-09-07T03:38:08;15.70;99.90
13336;DHT22;6737;51.480;11.962;2023-09-07T03:40:34;15.70;99.90
13336;DHT22;6737;51.480;11.962;2023-09-07T03:43:00;15.70;99.90
13336;DHT22;6737;51.480;11.962;2023-09-07T03:45:26;15.70;99.90
13336;DHT22;6737;51.480;11.962;2023-09-07T03:47:51;15.70;99.90
13336;DHT22;6737;51.480;11.962;2023-09-07T03:50:17;15.70;99.90
13336;DHT22;6737;51.480;11.962;2023-09-07T03:52:43;15.70;99.90
13336;DHT22;6737;51.480;11.962;2023-09-07T03:55:09;15.70;99.90
13336;DHT22;6737;51.480;11.962;2023-09-07T03:57:34;15.70;99.90
13336;DHT22;6737;51.480;11.962;2023-09-07T04:00:00;15.60;99.90
13336;DHT22;6737;51.480;11.962;2023-09-07T04:02:26;15.50;99.90
13336;DHT22;6737;51.480;11.962;2023-09-07T04:04:54;15.40;99.90
13336;DHT22;6737;51.480;11.962;2023-09-07T04:07:21;15.40;99.90
13336;DHT22;6737;51.480;11.962;2023-09-07T04:09:47;15.40;99.90
13336;DHT22;6737;51.480;11.962;2023-09-07T04:12:13;15.40;99.90
13336;DHT22;6737;51.480;11.962;2023-09-07T04:14:38;15.50;99.90
13336;DHT22;6737;51.480;11.962;2023-09-07T04:17:05;15.50;99.90
13336;DHT22;6737;51.480;11.962;2023-09-07T04:19:30;15.50;99.90
13336;DHT22;6737;51.480;11.962;2023-09-07T04:22:00;15.50;99.90
13336;DHT22;6737;51.480;11.962;2023-09-07T04:24:26;15.60;99.90
13336;DHT22;6737;51.480;11.962;2023-09-07T04:26:59;15.50;99.90
13336;DHT22;6737;51.480;11.962;2023-09-07T04:29:26;15.60;99.90
13336;DHT22;6737;51.480;11.962;2023-09-07T04:31:52;15.60;99.90
13336;DHT22;6737;51.480;11.962;2023-09-07T04:34:18;15.60;99.90
13336;DHT22;6737;51.480;11.962;2023-09-07T04:36:44;15.50;99.90
13336;DHT22;6737;51.480;11.962;2023-09-07T04:39:10;15.40;99.90
13336;DHT22;6737;51.480;11.962;2023-09-07T04:41:36;15.40;99.90
13336;DHT22;6737;51.480;11.962;2023-09-07T04:44:02;15.40;99.90
13336;DHT22;6737;51.480;11.962;2023-09-07T04:46:27;15.30;99.90
13336;DHT22;6737;51.480;11.962;2023-09-07T04:48:53;15.20;99.90
13336;DHT22;6737;51.480;11.962;2023-09-07T04:51:19;15.10;99.90
13336;DHT22;6737;51.480;11.962;2023-09-07T04:53:46;15.10;99.90
13336;DHT22;6737;51.480;11.962;2023-09-07T04:56:13;15.00;99.90
13336;DHT22;6737;51.480;11.962;2023-09-07T04:58:39;14.90;99.90
13336;DHT22;6737;51.480;11.962;2023-09-07T05:01:07;15.00;99.90
13336;DHT22;6737;51.480;11.962;2023-09-07T05:03:35;14.90;99.90
13336;DHT22;6737;51.480;11.962;2023-09-07T05:06:01;14.90;99.90
13336;DHT22;6737;51.480;11.962;2023-09-07T05:08:28;15.00;99.90
13336;DHT22;6737;51.480;11.962;2023-09-07T05:10:55;15.00;99.90
13336;DHT22;6737;51.480;11.962;2023-09-07T05:13:23;15.00;99.90
13336;DHT22;6737;51.480;11.962;2023-09-07T05:15:52;15.00;99.90
13336;DHT22;6737;51.480;11.962;2023-09-07T05:18:19;15.00;99.90
13336;DHT22;6737;51.480;11.962;2023-09-07T05:20:45;15.00;99.90
13336;DHT22;6737;51.480;11.962;2023-09-07T05:23:16;15.10;99.90
13336;DHT22;6737;51.480;11.962;2023-09-07T05:25:47;15.20;99.90
13336;DHT22;6737;51.480;11.962;2023-09-07T05:28:14;15.30;99.90
13336;DHT22;6737;51.480;11.962;2023-09-07T05:30:41;15.20;99.90
13336;DHT22;6737;51.480;11.962;2023-09-07T05:33:09;15.20;99.90
13336;DHT22;6737;51.480;11.962;2023-09-07T05:35:35;15.30;99.90
13336;DHT22;6737;51.480;11.962;2023-09-07T05:38:02;15.30;99.90
13336;DHT22;6737;51.480;11.962;2023-09-07T05:40:29;15.30;99.90
13336;DHT22;6737;51.480;11.962;2023-09-07T05:42:54;15.40;99.90
13336;DHT22;6737;51.480;11.962;2023-09-07T05:45:20;15.30;99.90
13336;DHT22;6737;51.480;11.962;2023-09-07T05:47:46;15.50;99.90
13336;DHT22;6737;51.480;11.962;2023-09-07T05:50:12;15.50;99.90
13336;DHT22;6737;51.480;11.962;2023-09-07T05:52:38;15.60;99.90
13336;DHT22;6737;51.480;11.962;2023-09-07T05:55:04;15.70;99.90
13336;DHT22;6737;51.480;11.962;2023-09-07T05:57:30;15.70;99.90
13336;DHT22;6737;51.480;11.962;2023-09-07T05:59:56;15.80;99.90
13336;DHT22;6737;51.480;11.962;2023-09-07T06:02:21;15.90;99.90
13336;DHT22;6737;51.480;11.962;2023-09-07T06:04:47;16.00;99.90
13336;DHT22;6737;51.480;11.962;2023-09-07T06:07:13;16.10;99.90
13336;DHT22;6737;51.480;11.962;2023-09-07T06:09:39;16.20;99.90
13336;DHT22;6737;51.480;11.962;2023-09-07T06:12:05;16.30;99.90
13336;DHT22;6737;51.480;11.962;2023-09-07T06:14:30;16.40;99.90
13336;DHT22;6737;51.480;11.962;2023-09-07T06:16:56;16.40;99.90
13336;DHT22;6737;51.480;11.962;2023-09-07T06:19:22;16.40;99.90
13336;DHT22;6737;51.480;11.962;2023-09-07T06:21:48;16.40;99.90
13336;DHT22;6737;51.480;11.962;2023-09-07T06:24:14;16.50;99.90
13336;DHT22;6737;51.480;11.962;2023-09-07T06:26:40;16.60;99.90
13336;DHT22;6737;51.480;11.962;2023-09-07T06:29:06;16.70;99.90
13336;DHT22;6737;51.480;11.962;2023-09-07T06:31:31;16.80;99.90
13336;DHT22;6737;51.480;11.962;2023-09-07T06:33:57;16.90;99.90
13336;DHT22;6737;51.480;11.962;2023-09-07T06:36:23;16.90;99.90
13336;DHT22;6737;51.480;11.962;2023-09-07T06:38:49;17.00;99.90
13336;DHT22;6737;51.480;11.962;2023-09-07T06:41:14;17.10;99.90
13336;DHT22;6737;51.480;11.962;2023-09-07T06:43:40;17.20;99.90
13336;DHT22;6737;51.480;11.962;2023-09-07T06:46:07;17.30;99.90
13336;DHT22;6737;51.480;11.962;2023-09-07T06:48:34;17.40;99.90
13336;DHT22;6737;51.480;11.962;2023-09-07T06:51:06;17.40;99.90
13336;DHT22;6737;51.480;11.962;2023-09-07T06:53:33;17.40;99.90
13336;DHT22;6737;51.480;11.962;2023-09-07T06:56:00;17.50;99.90
13336;DHT22;6737;51.480;11.962;2023-09-07T06:58:27;17.50;99.90
13336;DHT22;6737;51.480;11.962;2023-09-07T07:01:00;17.60;99.90
13336;DHT22;6737;51.480;11.962;2023-09-07T07:03:30;17.70;99.90
13336;DHT22;6737;51.480;11.962;2023-09-07T07:05:56;17.70;99.90
13336;DHT22;6737;51.480;11.962;2023-09-07T07:08:23;17.70;99.90
13336;DHT22;6737;51.480;11.962;2023-09-07T07:10:49;17.90;99.90
13336;DHT22;6737;51.480;11.962;2023-09-07T07:13:15;18.00;99.90
13336;DHT22;6737;51.480;11.962;2023-09-07T07:15:41;18.00;99.90
13336;DHT22;6737;51.480;11.962;2023-09-07T07:18:07;18.10;99.90
13336;DHT22;6737;51.480;11.962;2023-09-07T07:20:37;18.10;99.90
13336;DHT22;6737;51.480;11.962;2023-09-07T07:23:04;18.20;99.90
13336;DHT22;6737;51.480;11.962;2023-09-07T07:25:30;18.20;99.90
13336;DHT22;6737;51.480;11.962;2023-09-07T07:28:00;18.30;99.90
13336;DHT22;6737;51.480;11.962;2023-09-07T07:30:29;18.30;99.90
13336;DHT22;6737;51.480;11.962;2023-09-07T07:32:55;18.40;99.90
13336;DHT22;6737;51.480;11.962;2023-09-07T07:35:22;18.50;99.90
13336;DHT22;6737;51.480;11.962;2023-09-07T07:37:51;18.60;99.90
13336;DHT22;6737;51.480;11.962;2023-09-07T07:40:17;18.60;99.90
13336;DHT22;6737;51.480;11.962;2023-09-07T07:42:44;18.60;99.90
13336;DHT22;6737;51.480;11.962;2023-09-07T07:45:12;18.60;99.90
13336;DHT22;6737;51.480;11.962;2023-09-07T07:47:39;18.70;99.90
13336;DHT22;6737;51.480;11.962;2023-09-07T07:50:06;18.70;99.90
13336;DHT22;6737;51.480;11.962;2023-09-07T07:52:31;18.80;99.90
13336;DHT22;6737;51.480;11.962;2023-09-07T07:54:57;19.00;99.90
13336;DHT22;6737;51.480;11.962;2023-09-07T07:57:23;19.10;99.90
13336;DHT22;6737;51.480;11.962;2023-09-07T07:59:49;19.20;99.90
13336;DHT22;6737;51.480;11.962;2023-09-07T08:02:15;19.40;99.90
13336;DHT22;6737;51.480;11.962;2023-09-07T08:04:41;19.40;99.90
13336;DHT22;6737;51.480;11.962;2023-09-07T08:07:07;19.60;99.90
13336;DHT22;6737;51.480;11.962;2023-09-07T08:09:34;19.60;99.90
13336;DHT22;6737;51.480;11.962;2023-09-07T08:12:00;19.70;99.90
13336;DHT22;6737;51.480;11.962;2023-09-07T08:14:29;19.70;99.90
13336;DHT22;6737;51.480;11.962;2023-09-07T08:16:55;19.70;99.90
13336;DHT22;6737;51.480;11.962;2023-09-07T08:19:20;19.80;99.90
13336;DHT22;6737;51.480;11.962;2023-09-07T08:21:47;19.90;99.90
13336;DHT22;6737;51.480;11.962;2023-09-07T08:24:13;19.90;99.90
13336;DHT22;6737;51.480;11.962;2023-09-07T08:26:39;20.00;99.90
13336;DHT22;6737;51.480;11.962;2023-09-07T08:29:06;20.00;99.90
13336;DHT22;6737;51.480;11.962;2023-09-07T08:31:33;20.10;99.90
13336;DHT22;6737;51.480;11.962;2023-09-07T08:34:06;20.10;99.90
13336;DHT22;6737;51.480;11.962;2023-09-07T08:36:34;20.30;99.90
13336;DHT22;6737;51.480;11.962;2023-09-07T08:39:01;20.40;99.90
13336;DHT22;6737;51.480;11.962;2023-09-07T08:41:35;20.50;99.90
13336;DHT22;6737;51.480;11.962;2023-09-07T08:44:07;20.70;99.90
13336;DHT22;6737;51.480;11.962;2023-09-07T08:46:34;20.70;99.90
13336;DHT22;6737;51.480;11.962;2023-09-07T08:49:00;20.80;99.90
13336;DHT22;6737;51.480;11.962;2023-09-07T08:51:30;20.80;99.90
13336;DHT22;6737;51.480;11.962;2023-09-07T08:54:00;20.80;99.90
13336;DHT22;6737;51.480;11.962;2023-09-07T08:56:26;20.90;99.90
13336;DHT22;6737;51.480;11.962;2023-09-07T08:58:52;20.90;99.90
13336;DHT22;6737;51.480;11.962;2023-09-07T09:01:18;21.00;99.90
13336;DHT22;6737;51.480;11.962;2023-09-07T09:03:45;21.00;99.90
13336;DHT22;6737;51.480;11.962;2023-09-07T09:06:12;21.00;99.90
13336;DHT22;6737;51.480;11.962;2023-09-07T09:08:46;21.10;99.90
13336;DHT22;6737;51.480;11.962;2023-09-07T09:11:16;21.20;99.90
13336;DHT22;6737;51.480;11.962;2023-09-07T09:13:43;21.30;99.90
13336;DHT22;6737;51.480;11.962;2023-09-07T09:16:10;21.40;99.90
13336;DHT22;6737;51.480;11.962;2023-09-07T09:18:36;21.60;99.90
13336;DHT22;6737;51.480;11.962;2023-09-07T09:21:02;21.60;99.90
13336;DHT22;6737;51.480;11.962;2023-09-07T09:23:35;21.70;99.90
13336;DHT22;6737;51.480;11.962;2023-09-07T09:26:02;21.80;99.90
13336;DHT22;6737;51.480;11.962;2023-09-07T09:28:33;22.10;99.90
13336;DHT22;6737;51.480;11.962;2023-09-07T09:30:59;22.10;99.90
13336;DHT22;6737;51.480;11.962;2023-09-07T09:33:25;22.10;99.90
13336;DHT22;6737;51.480;11.962;2023-09-07T09:35:54;22.10;99.90
13336;DHT22;6737;51.480;11.962;2023-09-07T09:38:22;22.10;99.90
13336;DHT22;6737;51.480;11.962;2023-09-07T09:40:48;22.20;99.90
13336;DHT22;6737;51.480;11.962;2023-09-07T09:43:15;22.30;99.90
13336;DHT22;6737;51.480;11.962;2023-09-07T09:45:41;22.60;99.90
13336;DHT22;6737;51.480;11.962;2023-09-07T09:48:07;22.80;99.90
13336;DHT22;6737;51.480;11.962;2023-09-07T09:50:34;22.70;99.90
13336;DHT22;6737;51.480;11.962;2023-09-07T09:53:05;22.70;99.90
13336;DHT22;6737;51.480;11.962;2023-09-07T09:55:35;22.70;99.90
13336;DHT22;6737;51.480;11.962;2023-09-07T09:58:01;22.80;99.90
13336;DHT22;6737;51.480;11.962;2023-09-07T10:00:30;22.80;99.90
13336;DHT22;6737;51.480;11.962;2023-09-07T10:03:04;22.90;99.90
13336;DHT22;6737;51.480;11.962;2023-09-07T10:05:31;23.10;99.90
13336;DHT22;6737;51.480;11.962;2023-09-07T10:08:02;23.20;99.90
13336;DHT22;6737;51.480;11.962;2023-09-07T10:10:35;23.30;99.90
13336;DHT22;6737;51.480;11.962;2023-09-07T10:13:02;23.30;99.90
13336;DHT22;6737;51.480;11.962;2023-09-07T10:15:30;23.50;99.90
13336;DHT22;6737;51.480;11.962;2023-09-07T10:18:13;23.60;99.90
13336;DHT22;6737;51.480;11.962;2023-09-07T10:20:56;23.60;99.90
13336;DHT22;6737;51.480;11.962;2023-09-07T10:23:39;23.60;99.90
13336;DHT22;6737;51.480;11.962;2023-09-07T10:26:17;23.80;99.90
13336;DHT22;6737;51.480;11.962;2023-09-07T10:28:44;23.90;99.90
13336;DHT22;6737;51.480;11.962;2023-09-07T10:31:19;23.90;99.90
13336;DHT22;6737;51.480;11.962;2023-09-07T10:33:46;24.20;99.90
13336;DHT22;6737;51.480;11.962;2023-09-07T10:36:23;24.10;99.90
13336;DHT22;6737;51.480;11.962;2023-09-07T10:38:50;24.10;99.90
13336;DHT22;6737;51.480;11.962;2023-09-07T10:41:19;24.30;99.90
13336;DHT22;6737;51.480;11.962;2023-09-07T10:43:49;24.40;99.90
13336;DHT22;6737;51.480;11.962;2023-09-07T10:46:19;24.30;99.90
13336;DHT22;6737;51.480;11.962;2023-09-07T10:48:52;24.30;99.90
13336;DHT22;6737;51.480;11.962;2023-09-07T10:51:19;24.40;99.90
13336;DHT22;6737;51.480;11.962;2023-09-07T10:53:45;24.30;99.90
13336;DHT22;6737;51.480;11.962;2023-09-07T10:56:11;24.50;99.90
13336;DHT22;6737;51.480;11.962;2023-09-07T10:58:38;24.60;99.90
13336;DHT22;6737;51.480;11.962;2023-09-07T11:01:11;24.60;99.90
13336;DHT22;6737;51.480;11.962;2023-09-07T11:03:37;24.60;99.90
13336;DHT22;6737;51.480;11.962;2023-09-07T11:06:09;24.60;99.90
13336;DHT22;6737;51.480;11.962;2023-09-07T11:08:36;24.60;99.90
13336;DHT22;6737;51.480;11.962;2023-09-07T11:11:03;24.60;99.90
13336;DHT22;6737;51.480;11.962;2023-09-07T11:13:28;24.60;99.90
13336;DHT22;6737;51.480;11.962;2023-09-07T11:15:56;24.80;99.90
13336;DHT22;6737;51.480;11.962;2023-09-07T11:18:23;24.70;99.90
13336;DHT22;6737;51.480;11.962;2023-09-07T11:20:51;24.70;99.90
13336;DHT22;6737;51.480;11.962;2023-09-07T11:23:19;24.80;99.90
13336;DHT22;6737;51.480;11.962;2023-09-07T11:25:49;24.80;99.90
13336;DHT22;6737;51.480;11.962;2023-09-07T11:28:17;25.00;99.90
13336;DHT22;6737;51.480;11.962;2023-09-07T11:30:54;25.00;99.90
13336;DHT22;6737;51.480;11.962;2023-09-07T11:33:22;25.00;99.90
13336;DHT22;6737;51.480;11.962;2023-09-07T11:35:48;25.20;99.90
13336;DHT22;6737;51.480;11.962;2023-09-07T11:38:15;25.30;99.90
13336;DHT22;6737;51.480;11.962;2023-09-07T11:40:42;25.20;99.90
13336;DHT22;6737;51.480;11.962;2023-09-07T11:43:17;25.10;99.90
13336;DHT22;6737;51.480;11.962;2023-09-07T11:45:46;25.20;99.90
13336;DHT22;6737;51.480;11.962;2023-09-07T11:48:12;25.30;99.90
13336;DHT22;6737;51.480;11.962;2023-09-07T11:50:38;25.40;99.90
13336;DHT22;6737;51.480;11.962;2023-09-07T11:53:06;25.20;99.90
13336;DHT22;6737;51.480;11.962;2023-09-07T11:55:35;25.30;99.90
13336;DHT22;6737;51.480;11.962;2023-09-07T11:58:03;25.30;99.90
13336;DHT22;6737;51.480;11.962;2023-09-07T12:00:30;25.40;99.90
13336;DHT22;6737;51.480;11.962;2023-09-07T12:02:57;25.40;99.90
13336;DHT22;6737;51.480;11.962;2023-09-07T12:05:24;25.30;99.90
13336;DHT22;6737;51.480;11.962;2023-09-07T12:07:50;25.40;99.90
13336;DHT22;6737;51.480;11.962;2023-09-07T12:10:16;25.40;99.90
13336;DHT22;6737;51.480;11.962;2023-09-07T12:12:42;25.50;99.90
13336;DHT22;6737;51.480;11.962;2023-09-07T12:15:10;25.60;99.90
13336;DHT22;6737;51.480;11.962;2023-09-07T12:17:39;25.50;99.90
13336;DHT22;6737;51.480;11.962;2023-09-07T12:20:06;25.70;99.90
13336;DHT22;6737;51.480;11.962;2023-09-07T12:22:38;25.60;99.90
13336;DHT22;6737;51.480;11.962;2023-09-07T12:25:05;25.60;99.90
13336;DHT22;6737;51.480;11.962;2023-09-07T12:27:36;25.70;99.90
13336;DHT22;6737;51.480;11.962;2023-09-07T12:30:03;25.90;99.90
13336;DHT22;6737;51.480;11.962;2023-09-07T12:32:32;25.90;99.90
13336;DHT22;6737;51.480;11.962;2023-09-07T12:34:59;26.00;99.90
13336;DHT22;6737;51.480;11.962;2023-09-07T12:37:25;25.90;99.90
13336;DHT22;6737;51.480;11.962;2023-09-07T12:39:51;25.80;99.90
13336;DHT22;6737;51.480;11.962;2023-09-07T12:42:17;25.80;99.90
13336;DHT22;6737;51.480;11.962;2023-09-07T12:44:44;25.80;99.90
13336;DHT22;6737;51.480;11.962;2023-09-07T12:47:10;25.90;99.90
13336;DHT22;6737;51.480;11.962;2023-09-07T12:49:35;25.90;99.90
13336;DHT22;6737;51.480;11.962;2023-09-07T12:52:01;25.90;99.90
13336;DHT22;6737;51.480;11.962;2023-09-07T12:54:35;25.90;99.90
13336;DHT22;6737;51.480;11.962;2023-09-07T12:57:02;25.90;99.90
13336;DHT22;6737;51.480;11.962;2023-09-07T12:59:29;26.10;99.90
13336;DHT22;6737;51.480;11.962;2023-09-07T13:01:54;26.00;99.90
13336;DHT22;6737;51.480;11.962;2023-09-07T13:04:23;25.90;99.90
13336;DHT22;6737;51.480;11.962;2023-09-07T13:06:49;25.90;99.90
13336;DHT22;6737;51.480;11.962;2023-09-07T13:09:18;25.90;99.90
13336;DHT22;6737;51.480;11.962;2023-09-07T13:11:44;26.00;99.90
13336;DHT22;6737;51.480;11.962;2023-09-07T13:14:09;26.10;99.90
13336;DHT22;6737;51.480;11.962;2023-09-07T13:16:35;25.90;99.90
13336;DHT22;6737;51.480;11.962;2023-09-07T13:19:01;26.00;99.90
13336;DHT22;6737;51.480;11.962;2023-09-07T13:21:27;25.90;99.90
13336;DHT22;6737;51.480;11.962;2023-09-07T13:23:53;25.90;99.90
13336;DHT22;6737;51.480;11.962;2023-09-07T13:26:19;25.90;99.90
13336;DHT22;6737;51.480;11.962;2023-09-07T13:28:45;25.90;99.90
13336;DHT22;6737;51.480;11.962;2023-09-07T13:31:11;25.90;99.90
13336;DHT22;6737;51.480;11.962;2023-09-07T13:33:37;25.90;99.90
13336;DHT22;6737;51.480;11.962;2023-09-07T13:36:03;26.00;99.90
13336;DHT22;6737;51.480;11.962;2023-09-07T13:38:29;26.00;99.90
13336;DHT22;6737;51.480;11.962;2023-09-07T13:40:55;26.00;99.90
13336;DHT22;6737;51.480;11.962;2023-09-07T13:43:20;26.00;99.90
13336;DHT22;6737;51.480;11.962;2023-09-07T13:45:46;26.00;99.90
13336;DHT22;6737;51.480;11.962;2023-09-07T13:48:13;26.00;99.90
13336;DHT22;6737;51.480;11.962;2023-09-07T13:50:39;26.00;99.90
13336;DHT22;6737;51.480;11.962;2023-09-07T13:53:05;25.90;99.90
13336;DHT22;6737;51.480;11.962;2023-09-07T13:55:31;25.90;99.90
13336;DHT22;6737;51.480;11.962;2023-09-07T13:57:56;26.00;99.90
13336;DHT22;6737;51.480;11.962;2023-09-07T14:00:22;26.00;99.90
13336;DHT22;6737;51.480;11.962;2023-09-07T14:02:48;25.90;99.90
13336;DHT22;6737;51.480;11.962;2023-09-07T14:05:14;25.80;99.90
13336;DHT22;6737;51.480;11.962;2023-09-07T14:07:40;25.90;99.90
13336;DHT22;6737;51.480;11.962;2023-09-07T14:10:06;26.00;99.90
13336;DHT22;6737;51.480;11.962;2023-09-07T14:12:32;26.00;99.90
13336;DHT22;6737;51.480;11.962;2023-09-07T14:14:58;26.10;99.90
13336;DHT22;6737;51.480;11.962;2023-09-07T14:17:24;26.00;99.90
13336;DHT22;6737;51.480;11.962;2023-09-07T14:19:50;25.90;99.90
13336;DHT22;6737;51.480;11.962;2023-09-07T14:22:16;26.00;99.90
13336;DHT22;6737;51.480;11.962;2023-09-07T14:24:41;26.00;99.90
13336;DHT22;6737;51.480;11.962;2023-09-07T14:27:07;26.20;99.90
13336;DHT22;6737;51.480;11.962;2023-09-07T14:29:35;26.10;99.90
13336;DHT22;6737;51.480;11.962;2023-09-07T14:32:02;26.20;99.90
13336;DHT22;6737;51.480;11.962;2023-09-07T14:34:29;26.10;99.90
13336;DHT22;6737;51.480;11.962;2023-09-07T14:36:55;26.20;99.90
13336;DHT22;6737;51.480;11.962;2023-09-07T14:39:21;26.20;99.90
13336;DHT22;6737;51.480;11.962;2023-09-07T14:41:50;26.20;99.90
13336;DHT22;6737;51.480;11.962;2023-09-07T14:44:20;26.10;99.90
13336;DHT22;6737;51.480;11.962;2023-09-07T14:46:46;26.20;99.90
13336;DHT22;6737;51.480;11.962;2023-09-07T14:49:16;26.10;99.90
13336;DHT22;6737;51.480;11.962;2023-09-07T14:51:46;26.00;99.90
13336;DHT22;6737;51.480;11.962;2023-09-07T14:54:13;25.90;99.90
13336;DHT22;6737;51.480;11.962;2023-09-07T14:56:39;25.80;99.90
13336;DHT22;6737;51.480;11.962;2023-09-07T14:59:05;25.90;99.90
13336;DHT22;6737;51.480;11.962;2023-09-07T15:01:32;26.20;99.90
13336;DHT22;6737;51.480;11.962;2023-09-07T15:03:57;26.00;99.90
13336;DHT22;6737;51.480;11.962;2023-09-07T15:06:23;26.00;99.90
13336;DHT22;6737;51.480;11.962;2023-09-07T15:08:49;26.00;99.90
13336;DHT22;6737;51.480;11.962;2023-09-07T15:11:16;25.80;99.90
13336;DHT22;6737;51.480;11.962;2023-09-07T15:13:42;25.90;99.90
13336;DHT22;6737;51.480;11.962;2023-09-07T15:16:08;25.80;99.90
13336;DHT22;6737;51.480;11.962;2023-09-07T15:18:34;25.90;99.90
13336;DHT22;6737;51.480;11.962;2023-09-07T15:21:01;26.10;99.90
13336;DHT22;6737;51.480;11.962;2023-09-07T15:23:27;26.00;99.90
13336;DHT22;6737;51.480;11.962;2023-09-07T15:25:54;25.90;99.90
13336;DHT22;6737;51.480;11.962;2023-09-07T15:28:20;26.00;99.90